Terminal Aerodrome Forecast
Issued by NWS Newport/Morehead City, NC

Home | Current Version | Previous Version | Graphics & Text | Print | Product List | Glossary On
Versions: 1 2 3 4 5 6 7 8 9 10 11 12 13 14 15 16 17 18 19 20
000
FTUS42 KMHX 220543
TAFEWN
TAF
KEWN 220543Z 2206/2306 00000KT P6SM SKC
     FM220700 00000KT 2SM BR OVC007
      TEMPO 2208/2212 1/2SM FG OVC003
     FM221400 20004KT P6SM SCT020
     FM221900 20006KT P6SM VCSH BKN040=

USA.gov is the U.S. government's official web portal to all federal, state and local government web resources and services.